Terminal Aerodrome Forecast
Issued by NWS

Home | Current Version | Previous Version | Text Only | Print | Product List | Glossary On
Versions: 1 2 3 4 5 6 7 8 9 10 11 12 13 14 15
000
FTUS42 KMLB 202351
TAFTIX
TAF
KTIX 202351Z 2100/2124 33006KT P6SM SCT050 OVC100
      TEMPO 2100/2101 -RA BKN020 OVC050
     FM210800 VRB04KT 4SM BR BKN010
     FM211400 29005KT P6SM SCT015 BKN150
     FM211800 04008KT P6SM SCT030 BKN150=

USA.gov is the U.S. government's official web portal to all federal, state and local government web resources and services.